createdAt,value
2023-02-08T00:00:35.630Z,60.29
2023-02-08T00:03:02.316Z,60.53
2023-02-08T00:05:28.937Z,60.61
2023-02-08T00:07:55.627Z,60.91
2023-02-08T00:10:22.320Z,60.62
2023-02-08T00:12:49.100Z,60.86
2023-02-08T00:15:15.771Z,60.49
2023-02-08T00:17:42.451Z,59.94
2023-02-08T00:20:09.896Z,60.26
2023-02-08T00:22:36.687Z,60.61
2023-02-08T00:25:03.516Z,60.63
2023-02-08T00:27:30.193Z,60.80
2023-02-08T00:29:56.902Z,60.84
2023-02-08T00:32:23.663Z,61.54
2023-02-08T00:34:50.702Z,61.28
2023-02-08T00:37:17.749Z,61.53
2023-02-08T00:39:44.405Z,61.82
2023-02-08T00:42:11.061Z,62.48
2023-02-08T00:44:39.463Z,62.37
2023-02-08T00:47:06.158Z,62.72
2023-02-08T00:49:32.840Z,62.94
2023-02-08T00:51:59.607Z,61.97
2023-02-08T00:54:26.206Z,61.91
2023-02-08T00:56:52.858Z,61.68
2023-02-08T00:59:19.501Z,61.71
2023-02-08T01:01:46.239Z,61.37
2023-02-08T01:04:12.909Z,61.16
2023-02-08T01:06:40.006Z,60.82
2023-02-08T01:09:06.612Z,61.28
2023-02-08T01:11:33.527Z,61.37
2023-02-08T01:14:00.326Z,61.08
2023-02-08T01:16:30.278Z,61.90
2023-02-08T01:18:58.914Z,61.60
2023-02-08T01:21:31.510Z,61.28
2023-02-08T01:23:58.862Z,61.29
2023-02-08T01:26:26.392Z,62.18
2023-02-08T01:28:54.453Z,61.51
2023-02-08T01:31:29.065Z,61.50
2023-02-08T01:33:57.095Z,61.80
2023-02-08T01:36:24.997Z,61.54
2023-02-08T01:38:52.291Z,61.99
2023-02-08T01:41:31.299Z,61.33
2023-02-08T01:44:28.578Z,61.87
2023-02-08T01:46:55.272Z,62.89
2023-02-08T01:49:31.982Z,64.23
2023-02-08T01:52:01.026Z,62.60
2023-02-08T01:54:33.217Z,62.92
2023-02-08T01:56:59.891Z,62.33
2023-02-08T01:59:34.082Z,62.31
2023-02-08T02:02:04.324Z,61.42
2023-02-08T02:04:31.150Z,61.28
2023-02-08T02:07:00.422Z,61.65
2023-02-08T02:10:02.877Z,62.37
2023-02-08T02:12:33.163Z,62.58
2023-02-08T02:15:02.699Z,61.86
2023-02-08T02:17:30.025Z,61.20
2023-02-08T02:20:02.828Z,61.73
2023-02-08T02:22:32.577Z,61.47
2023-02-08T02:25:12.596Z,61.87
2023-02-08T02:28:00.960Z,61.45
2023-02-08T02:30:51.790Z,61.79
2023-02-08T02:33:44.611Z,61.87
2023-02-08T02:36:41.029Z,61.03
2023-02-08T02:39:26.230Z,61.39
2023-02-08T02:42:45.019Z,62.11
2023-02-08T02:45:20.650Z,62.20
2023-02-08T02:47:49.959Z,61.41
2023-02-08T02:50:54.794Z,61.55
2023-02-08T02:53:36.675Z,62.10
2023-02-08T02:56:14.185Z,62.14
2023-02-08T02:58:42.555Z,62.49
2023-02-08T03:01:09.280Z,62.88
2023-02-08T03:03:35.987Z,61.80
2023-02-08T03:06:10.470Z,62.13
2023-02-08T03:08:55.875Z,62.69
2023-02-08T03:11:28.658Z,62.24
2023-02-08T03:14:19.617Z,62.57
2023-02-08T03:17:02.458Z,62.04
2023-02-08T03:19:47.923Z,63.06
2023-02-08T03:22:23.773Z,62.52
2023-02-08T03:24:59.402Z,61.60
2023-02-08T03:27:36.058Z,61.95
2023-02-08T03:30:33.392Z,62.13
2023-02-08T03:33:11.607Z,63.22
2023-02-08T03:35:48.822Z,62.92
2023-02-08T03:38:33.821Z,63.64
2023-02-08T03:41:04.409Z,62.32
2023-02-08T03:43:38.213Z,62.58
2023-02-08T03:46:14.551Z,62.38
2023-02-08T03:48:46.193Z,63.07
2023-02-08T03:51:15.641Z,62.61
2023-02-08T03:53:45.661Z,62.32
2023-02-08T03:56:30.812Z,61.61
2023-02-08T03:59:04.149Z,61.61
2023-02-08T04:01:36.862Z,61.64
2023-02-08T04:04:03.772Z,62.04
2023-02-08T04:06:30.589Z,62.33
2023-02-08T04:08:57.417Z,62.79
2023-02-08T04:11:24.001Z,61.71
2023-02-08T04:13:50.666Z,61.77
2023-02-08T04:16:17.299Z,62.35
2023-02-08T04:18:43.910Z,60.79
2023-02-08T04:21:10.505Z,61.85
2023-02-08T04:23:37.133Z,60.57
2023-02-08T04:26:04.219Z,61.83
2023-02-08T04:28:31.592Z,62.87
2023-02-08T04:30:58.387Z,61.87
2023-02-08T04:33:25.126Z,62.53
2023-02-08T04:35:52.386Z,62.40
2023-02-08T04:38:19.035Z,62.49
2023-02-08T04:40:45.644Z,61.30
2023-02-08T04:43:12.292Z,61.45
2023-02-08T04:45:38.944Z,62.45
2023-02-08T04:48:07.337Z,62.83
2023-02-08T04:50:35.938Z,61.49
2023-02-08T04:53:02.664Z,62.11
2023-02-08T04:55:29.397Z,62.10
2023-02-08T04:57:56.126Z,61.62
2023-02-08T05:00:22.823Z,62.23
2023-02-08T05:02:57.080Z,62.28
2023-02-08T05:05:26.103Z,62.49
2023-02-08T05:07:52.770Z,61.85
2023-02-08T05:10:19.893Z,61.83
2023-02-08T05:12:47.386Z,61.95
2023-02-08T05:15:14.315Z,61.89
2023-02-08T05:17:40.950Z,62.48
2023-02-08T05:20:08.888Z,62.69
2023-02-08T05:22:36.067Z,62.52
2023-02-08T05:25:03.352Z,62.62
2023-02-08T05:27:30.194Z,62.98
2023-02-08T05:29:58.947Z,63.45
2023-02-08T05:32:25.989Z,62.86
2023-02-08T05:34:52.747Z,63.21
2023-02-08T05:37:19.467Z,62.49
2023-02-08T05:39:46.318Z,61.60
2023-02-08T05:42:13.102Z,62.47
2023-02-08T05:44:40.055Z,63.03
2023-02-08T05:47:06.782Z,61.42
2023-02-08T05:49:33.601Z,61.07
2023-02-08T05:52:00.184Z,62.76
2023-02-08T05:54:26.970Z,62.43
2023-02-08T05:56:53.645Z,62.97
2023-02-08T05:59:20.404Z,62.49
2023-02-08T06:01:47.017Z,63.11
2023-02-08T06:04:15.050Z,61.96
2023-02-08T06:06:41.831Z,63.39
2023-02-08T06:09:08.459Z,63.84
2023-02-08T06:11:36.215Z,63.26
2023-02-08T06:14:03.422Z,63.04
2023-02-08T06:16:30.124Z,62.32
2023-02-08T06:18:57.004Z,61.82
2023-02-08T06:21:24.542Z,62.98
2023-02-08T06:23:51.292Z,62.31
2023-02-08T06:26:17.968Z,63.34
2023-02-08T06:28:44.822Z,63.06
2023-02-08T06:31:11.398Z,62.81
2023-02-08T06:33:38.061Z,62.53
2023-02-08T06:36:04.882Z,61.88
2023-02-08T06:38:31.524Z,62.29
2023-02-08T06:40:58.258Z,61.76
2023-02-08T06:43:25.740Z,62.27
2023-02-08T06:45:52.410Z,64.39
2023-02-08T06:48:19.056Z,63.21
2023-02-08T06:50:45.666Z,64.02
2023-02-08T06:53:12.528Z,63.66
2023-02-08T06:55:39.548Z,63.59
2023-02-08T06:58:06.326Z,63.34
2023-02-08T07:00:32.967Z,65.20
2023-02-08T07:03:00.851Z,65.32
2023-02-08T07:05:27.919Z,65.39
2023-02-08T07:07:54.635Z,64.75
2023-02-08T07:10:21.366Z,64.85
2023-02-08T07:12:47.989Z,65.08
2023-02-08T07:15:14.662Z,65.75
2023-02-08T07:17:41.438Z,65.03
2023-02-08T07:20:08.959Z,65.20
2023-02-08T07:22:35.638Z,65.58
2023-02-08T07:25:02.267Z,66.73
2023-02-08T07:27:29.106Z,65.92
2023-02-08T07:29:56.009Z,65.88
2023-02-08T07:32:22.928Z,66.79
2023-02-08T07:34:49.535Z,66.52
2023-02-08T07:37:16.422Z,67.23
2023-02-08T07:39:43.070Z,67.56
2023-02-08T07:42:10.426Z,67.88
2023-02-08T07:44:49.190Z,67.43
2023-02-08T07:47:17.092Z,67.88
2023-02-08T07:49:43.744Z,68.31
2023-02-08T07:52:10.480Z,68.04
2023-02-08T07:54:37.073Z,68.19
2023-02-08T07:57:03.950Z,67.46
2023-02-08T07:59:30.686Z,68.63
2023-02-08T08:01:57.383Z,68.48
2023-02-08T08:04:24.053Z,69.00
2023-02-08T08:06:51.578Z,69.24
2023-02-08T08:09:20.207Z,69.82
2023-02-08T08:11:46.863Z,70.14
2023-02-08T08:14:13.714Z,68.88
2023-02-08T08:16:40.951Z,68.94
2023-02-08T09:11:16.921Z,68.47
2023-02-08T09:13:44.016Z,67.99
2023-02-08T09:16:16.860Z,67.59
2023-02-08T09:18:44.472Z,66.72
2023-02-08T09:21:20.056Z,65.53
2023-02-08T09:23:50.503Z,65.48
2023-02-08T09:26:19.027Z,66.14
2023-02-08T09:28:46.177Z,64.83
2023-02-08T09:31:26.429Z,64.59
2023-02-08T09:33:55.608Z,64.95
2023-02-08T09:36:23.578Z,65.26
2023-02-08T09:38:51.655Z,64.74
2023-02-08T09:41:54.930Z,64.80
2023-02-08T09:44:43.048Z,63.71
2023-02-08T09:47:32.972Z,63.01
2023-02-08T09:50:20.236Z,63.05
2023-02-08T09:52:52.593Z,62.95
2023-02-08T09:55:21.925Z,63.06
2023-02-08T09:57:51.691Z,63.45
2023-02-08T10:00:25.163Z,62.72
2023-02-08T10:02:54.152Z,62.32
2023-02-08T10:05:24.962Z,62.59
2023-02-08T10:07:51.785Z,61.84
2023-02-08T10:10:38.900Z,61.16
2023-02-08T10:13:19.391Z,60.97
2023-02-08T10:16:08.361Z,61.28
2023-02-08T10:18:58.463Z,59.46
2023-02-08T10:21:37.543Z,59.45
2023-02-08T10:24:04.181Z,59.17
2023-02-08T10:26:33.655Z,58.78
2023-02-08T10:29:47.352Z,58.57
2023-02-08T10:32:13.892Z,58.10
2023-02-08T10:34:55.520Z,56.50
2023-02-08T10:37:34.812Z,55.98
2023-02-08T10:40:21.035Z,56.67
2023-02-08T10:42:52.027Z,56.11
2023-02-08T10:45:30.113Z,55.93
2023-02-08T10:48:01.787Z,56.20
2023-02-08T10:50:47.538Z,56.11
2023-02-08T10:53:17.159Z,55.62
2023-02-08T10:55:46.285Z,56.31
2023-02-08T10:58:20.162Z,55.74
2023-02-08T11:00:49.744Z,55.76
2023-02-08T11:03:23.107Z,56.00
2023-02-08T11:05:50.415Z,56.73
2023-02-08T11:08:22.876Z,55.86
2023-02-08T11:11:03.976Z,55.19
2023-02-08T11:13:43.366Z,54.59
2023-02-08T11:16:13.531Z,53.43
2023-02-08T11:18:48.406Z,52.20
2023-02-08T11:21:33.345Z,50.87
2023-02-08T11:24:03.160Z,51.61
2023-02-08T11:26:36.575Z,51.95
2023-02-08T11:29:13.932Z,51.96
2023-02-08T11:31:56.563Z,52.08
2023-02-08T11:34:26.410Z,48.28
2023-02-08T11:36:53.462Z,47.38
2023-02-08T11:39:27.151Z,48.17
2023-02-08T11:41:57.528Z,45.57
2023-02-08T11:44:33.839Z,44.13
2023-02-08T11:47:06.758Z,43.88
2023-02-08T11:49:44.775Z,42.58
2023-02-08T11:52:40.613Z,44.42
2023-02-08T11:55:19.559Z,45.12
2023-02-08T11:57:58.472Z,44.88
2023-02-08T12:00:31.859Z,43.05
2023-02-08T12:03:08.058Z,42.27
2023-02-08T12:06:01.006Z,42.84
2023-02-08T12:08:41.009Z,41.20
2023-02-08T12:11:29.142Z,41.87
2023-02-08T12:14:04.454Z,42.94
2023-02-08T12:16:51.335Z,42.71
2023-02-08T12:19:33.765Z,41.65
2023-02-08T12:22:11.129Z,43.21
2023-02-08T12:24:48.038Z,42.08
2023-02-08T12:27:31.067Z,41.55
2023-02-08T12:30:13.995Z,40.94
2023-02-08T12:33:16.783Z,40.47
2023-02-08T12:36:04.218Z,41.41
2023-02-08T12:39:18.901Z,42.14
2023-02-08T12:42:10.166Z,42.33
2023-02-08T12:45:03.354Z,44.32
2023-02-08T12:47:35.627Z,41.00
2023-02-08T12:50:09.200Z,40.01
2023-02-08T12:52:39.026Z,41.02
2023-02-08T12:55:05.692Z,42.81
2023-02-08T12:57:33.284Z,42.82
2023-02-08T13:00:15.729Z,41.88
2023-02-08T13:02:57.312Z,42.49
2023-02-08T13:05:29.037Z,40.40
2023-02-08T13:08:03.787Z,40.64
2023-02-08T13:10:38.528Z,41.00
2023-02-08T13:13:15.516Z,40.30
2023-02-08T13:15:52.290Z,40.81
2023-02-08T13:18:23.344Z,41.18
2023-02-08T13:20:58.163Z,40.43
2023-02-08T13:23:29.828Z,39.96
2023-02-08T13:26:01.267Z,40.51
2023-02-08T13:28:28.431Z,39.44
2023-02-08T13:31:07.165Z,39.05
2023-02-08T13:33:59.326Z,39.50
2023-02-08T13:36:34.012Z,40.05
2023-02-08T13:39:02.774Z,39.26
2023-02-08T13:41:31.057Z,39.90
2023-02-08T13:44:09.373Z,38.96
2023-02-08T13:46:48.631Z,39.37
2023-02-08T13:49:49.062Z,39.97
2023-02-08T13:52:47.127Z,38.91
2023-02-08T13:55:33.580Z,36.88
2023-02-08T13:58:15.387Z,39.02
2023-02-08T14:00:54.753Z,38.31
2023-02-08T14:03:29.547Z,37.76
2023-02-08T14:06:06.310Z,38.75
2023-02-08T14:08:39.080Z,38.58
2023-02-08T14:11:11.524Z,37.85
2023-02-08T14:14:02.694Z,38.60
2023-02-08T14:16:42.008Z,38.15
2023-02-08T14:19:20.725Z,38.27
2023-02-08T14:21:58.599Z,38.89
2023-02-08T14:24:34.066Z,37.09
2023-02-08T14:27:11.560Z,36.23
2023-02-08T14:29:38.519Z,37.60
2023-02-08T14:32:05.513Z,38.13
2023-02-08T14:34:35.945Z,38.20
2023-02-08T14:37:17.846Z,37.29
2023-02-08T14:39:44.571Z,37.90
2023-02-08T14:42:13.893Z,37.58
2023-02-08T14:44:43.489Z,37.11
2023-02-08T14:47:35.290Z,36.71
2023-02-08T14:50:15.664Z,37.58
2023-02-08T14:52:52.730Z,35.15
2023-02-08T14:55:27.609Z,35.43
2023-02-08T14:57:58.052Z,34.76
2023-02-08T15:00:37.887Z,34.89
2023-02-08T15:03:12.020Z,35.90
2023-02-08T15:05:48.963Z,35.88
2023-02-08T15:08:20.976Z,35.50
2023-02-08T15:10:47.643Z,33.98
2023-02-08T15:13:26.918Z,35.00
2023-02-08T15:15:56.413Z,36.05
2023-02-08T15:18:31.077Z,34.39
2023-02-08T15:21:03.028Z,34.68
2023-02-08T15:23:30.869Z,34.95
2023-02-08T15:26:03.786Z,35.17
2023-02-08T15:28:33.813Z,36.11
2023-02-08T15:31:03.008Z,35.18
2023-02-08T15:33:29.790Z,35.84
2023-02-08T15:36:05.161Z,35.24
2023-02-08T15:38:34.292Z,34.60
2023-02-08T15:41:07.193Z,34.64
2023-02-08T15:43:35.415Z,35.45
2023-02-08T15:46:23.609Z,35.21
2023-02-08T15:48:51.483Z,35.81
2023-02-08T15:51:23.226Z,34.90
2023-02-08T15:53:55.771Z,35.30
2023-02-08T15:56:37.954Z,35.08
2023-02-08T15:59:14.532Z,35.03
2023-02-08T16:01:41.258Z,36.65
2023-02-08T16:04:12.405Z,35.50
2023-02-08T16:06:45.305Z,36.08
2023-02-08T16:09:22.145Z,36.24
2023-02-08T16:11:50.244Z,37.42
2023-02-08T16:14:19.267Z,36.82
2023-02-08T16:16:49.919Z,38.08
2023-02-08T16:19:21.747Z,38.06
2023-02-08T16:21:48.760Z,37.81
2023-02-08T16:24:15.346Z,38.90
2023-02-08T16:26:45.289Z,37.22
2023-02-08T16:29:21.483Z,37.87
2023-02-08T16:31:56.188Z,37.73
2023-02-08T16:34:23.276Z,37.69
2023-02-08T16:36:52.092Z,37.08
2023-02-08T16:39:18.726Z,38.36
2023-02-08T16:42:09.705Z,38.75
2023-02-08T16:45:01.290Z,37.85
2023-02-08T16:47:39.779Z,37.80
2023-02-08T16:50:08.017Z,38.13
2023-02-08T16:52:35.296Z,38.20
2023-02-08T16:55:02.789Z,38.80
2023-02-08T16:57:39.715Z,38.87
2023-02-08T17:00:32.162Z,39.47
2023-02-08T17:03:00.288Z,40.16
2023-02-08T17:05:32.670Z,40.63
2023-02-08T17:08:00.421Z,39.57
2023-02-08T17:10:32.350Z,41.42
2023-02-08T17:13:18.817Z,41.88
2023-02-08T17:15:48.856Z,41.61
2023-02-08T17:18:15.640Z,41.32
2023-02-08T17:20:43.656Z,42.30
2023-02-08T17:23:11.535Z,42.55
2023-02-08T17:25:39.050Z,42.57
2023-02-08T17:28:08.864Z,42.65
2023-02-08T17:30:39.547Z,42.71
2023-02-08T17:33:07.507Z,43.18
2023-02-08T17:35:36.942Z,43.97
2023-02-08T17:38:04.952Z,43.45
2023-02-08T17:40:35.076Z,43.55
2023-02-08T17:43:02.645Z,44.52
2023-02-08T17:45:29.503Z,43.86
2023-02-08T17:47:59.851Z,44.39
2023-02-08T17:50:27.106Z,44.43
2023-02-08T17:52:54.174Z,43.96
2023-02-08T17:55:21.461Z,44.46
2023-02-08T17:57:48.437Z,44.84
2023-02-08T18:00:20.396Z,44.13
2023-02-08T18:02:52.771Z,44.80
2023-02-08T18:05:23.069Z,44.87
2023-02-08T18:07:51.344Z,44.61
2023-02-08T18:10:18.241Z,45.16
2023-02-08T18:12:45.245Z,44.86
2023-02-08T18:15:14.541Z,45.04
2023-02-08T18:17:42.289Z,45.36
2023-02-08T18:20:11.646Z,45.40
2023-02-08T18:22:38.857Z,45.19
2023-02-08T18:25:06.157Z,45.50
2023-02-08T18:27:32.871Z,45.71
2023-02-08T18:30:00.170Z,45.64
2023-02-08T18:32:28.134Z,46.16
2023-02-08T18:34:55.879Z,45.94
2023-02-08T18:37:23.193Z,45.74
2023-02-08T18:39:51.309Z,46.03
2023-02-08T18:42:18.222Z,46.09
2023-02-08T18:44:45.629Z,46.28
2023-02-08T18:47:12.426Z,46.12
2023-02-08T18:49:41.892Z,45.76
2023-02-08T18:52:11.540Z,45.26
2023-02-08T18:54:39.699Z,45.07
2023-02-08T18:57:09.469Z,44.42
2023-02-08T18:59:39.175Z,45.17
2023-02-08T19:02:07.849Z,44.70
2023-02-08T19:04:38.944Z,44.53
2023-02-08T19:07:06.919Z,43.61
2023-02-08T19:09:38.314Z,44.29
2023-02-08T19:12:05.801Z,44.33
2023-02-08T19:14:32.440Z,45.34
2023-02-08T19:17:00.099Z,44.99
2023-02-08T19:19:27.221Z,45.43
2023-02-08T19:21:53.952Z,46.93
2023-02-08T19:24:20.853Z,47.41
2023-02-08T19:26:48.132Z,47.76
2023-02-08T19:29:17.151Z,48.48
2023-02-08T19:31:44.600Z,48.49
2023-02-08T19:34:12.813Z,48.38
2023-02-08T19:36:49.444Z,48.95
2023-02-08T19:39:19.969Z,49.70
2023-02-08T19:41:47.508Z,49.85
2023-02-08T19:44:17.826Z,49.54
2023-02-08T19:46:53.705Z,49.18
2023-02-08T19:49:22.218Z,48.89
2023-02-08T19:51:48.962Z,48.55
2023-02-08T19:54:18.089Z,48.74
2023-02-08T19:56:45.346Z,48.15
2023-02-08T19:59:19.140Z,48.92
2023-02-08T20:01:46.338Z,48.83
2023-02-08T20:04:13.555Z,48.67
2023-02-08T20:06:40.712Z,48.24
2023-02-08T20:09:08.344Z,49.38
2023-02-08T20:11:45.135Z,49.83
2023-02-08T20:14:22.117Z,48.68
2023-02-08T20:16:48.999Z,49.01
2023-02-08T20:19:15.930Z,50.63
2023-02-08T20:21:44.568Z,49.74
2023-02-08T20:24:12.071Z,50.08
2023-02-08T20:26:40.552Z,49.07
2023-02-08T20:29:08.967Z,49.39
2023-02-08T20:31:38.129Z,49.20
2023-02-08T20:34:08.705Z,48.96
2023-02-08T20:36:40.397Z,48.45
2023-02-08T20:39:08.939Z,48.35
2023-02-08T20:41:35.662Z,48.23
2023-02-08T20:44:02.473Z,47.22
2023-02-08T20:46:33.796Z,46.49
2023-02-08T20:49:02.173Z,46.67
2023-02-08T20:51:29.962Z,46.54
2023-02-08T20:53:58.202Z,46.66
2023-02-08T20:56:35.939Z,47.05
2023-02-08T20:59:08.431Z,47.82
2023-02-08T21:01:36.452Z,47.35
2023-02-08T21:04:04.701Z,47.64
2023-02-08T21:06:34.007Z,47.50
2023-02-08T21:09:05.407Z,47.52
2023-02-08T21:11:33.500Z,47.45
2023-02-08T21:14:00.977Z,46.81
2023-02-08T21:16:28.172Z,47.00
2023-02-08T21:18:55.162Z,47.47
2023-02-08T21:21:21.929Z,47.88
2023-02-08T21:23:48.822Z,46.51
2023-02-08T21:26:18.561Z,47.06
2023-02-08T21:28:46.351Z,46.61
2023-02-08T21:31:22.011Z,47.47
2023-02-08T21:33:50.118Z,46.84
2023-02-08T21:36:19.430Z,47.17
2023-02-08T21:38:46.638Z,47.00
2023-02-08T21:41:20.373Z,46.47
2023-02-08T21:43:48.329Z,47.03
2023-02-08T21:46:15.529Z,46.03
2023-02-08T21:49:11.515Z,46.27
2023-02-08T21:51:57.017Z,46.45
2023-02-08T21:54:41.436Z,46.54
2023-02-08T21:57:15.768Z,46.62
2023-02-08T21:59:43.091Z,46.57
2023-02-08T22:02:36.604Z,45.93
2023-02-08T22:05:23.178Z,46.37
2023-02-08T22:07:54.407Z,45.89
2023-02-08T22:10:23.525Z,45.83
2023-02-08T22:12:52.458Z,45.42
2023-02-08T22:15:21.231Z,46.41
2023-02-08T22:17:48.022Z,45.88
2023-02-08T22:20:15.295Z,45.81
2023-02-08T22:22:41.881Z,45.68
2023-02-08T22:25:09.096Z,45.25
2023-02-08T22:27:35.740Z,45.14
2023-02-08T22:30:02.796Z,44.75
2023-02-08T22:32:29.476Z,44.51
2023-02-08T22:34:56.256Z,45.09
2023-02-08T22:37:23.012Z,44.44
2023-02-08T22:39:49.692Z,44.82
2023-02-08T22:42:16.348Z,44.54
2023-02-08T22:44:44.480Z,43.74
2023-02-08T22:47:12.772Z,44.12
2023-02-08T22:49:39.612Z,44.37
2023-02-08T22:52:08.692Z,44.25
2023-02-08T22:54:35.827Z,44.60
2023-02-08T22:57:02.767Z,44.36
2023-02-08T22:59:29.494Z,43.74
2023-02-08T23:01:56.213Z,43.89
2023-02-08T23:04:23.150Z,44.16
2023-02-08T23:06:50.756Z,44.42
2023-02-08T23:09:17.820Z,44.34
2023-02-08T23:11:44.416Z,43.87
2023-02-08T23:14:11.398Z,43.95
2023-02-08T23:16:38.480Z,43.80
2023-02-08T23:19:05.972Z,43.29
2023-02-08T23:21:32.779Z,43.68
2023-02-08T23:23:59.526Z,44.23
2023-02-08T23:26:26.195Z,44.81
2023-02-08T23:28:54.346Z,44.70
2023-02-08T23:31:22.087Z,44.79
2023-02-08T23:33:49.622Z,44.73
2023-02-08T23:36:19.239Z,44.22
2023-02-08T23:38:46.314Z,44.62
2023-02-08T23:41:20.836Z,45.04
2023-02-08T23:43:48.905Z,44.34
2023-02-08T23:46:24.158Z,44.39
2023-02-08T23:48:51.189Z,44.90
2023-02-08T23:51:20.840Z,44.69
2023-02-08T23:53:49.031Z,43.96
2023-02-08T23:56:17.492Z,44.47
2023-02-08T23:58:46.190Z,44.51
